sensor_id;sensor_type;location;lat;lon;timestamp;P1;durP1;ratioP1;P2;durP2;ratioP2
16063;SDS011;8136;53.172;8.256;2022-12-29T00:01:34;4.90;;;3.90;;
16063;SDS011;8136;53.172;8.256;2022-12-29T00:04:02;3.83;;;3.53;;
16063;SDS011;8136;53.172;8.256;2022-12-29T00:06:30;3.67;;;3.37;;
16063;SDS011;8136;53.172;8.256;2022-12-29T00:08:57;3.93;;;3.53;;
16063;SDS011;8136;53.172;8.256;2022-12-29T00:11:24;3.37;;;3.07;;
16063;SDS011;8136;53.172;8.256;2022-12-29T00:13:53;4.50;;;3.40;;
16063;SDS011;8136;53.172;8.256;2022-12-29T00:16:40;3.97;;;3.37;;
16063;SDS011;8136;53.172;8.256;2022-12-29T00:19:08;4.00;;;3.60;;
16063;SDS011;8136;53.172;8.256;2022-12-29T00:21:56;4.80;;;4.00;;
16063;SDS011;8136;53.172;8.256;2022-12-29T00:24:41;4.70;;;3.50;;
16063;SDS011;8136;53.172;8.256;2022-12-29T00:27:26;3.87;;;3.57;;
16063;SDS011;8136;53.172;8.256;2022-12-29T00:30:13;5.80;;;4.20;;
16063;SDS011;8136;53.172;8.256;2022-12-29T00:32:59;4.07;;;3.77;;
16063;SDS011;8136;53.172;8.256;2022-12-29T00:35:45;4.33;;;4.03;;
16063;SDS011;8136;53.172;8.256;2022-12-29T00:38:17;4.47;;;4.07;;
16063;SDS011;8136;53.172;8.256;2022-12-29T00:41:01;5.40;;;5.00;;
16063;SDS011;8136;53.172;8.256;2022-12-29T00:43:46;6.07;;;4.70;;
16063;SDS011;8136;53.172;8.256;2022-12-29T00:46:32;5.53;;;5.13;;
16063;SDS011;8136;53.172;8.256;2022-12-29T00:48:59;5.97;;;5.37;;
16063;SDS011;8136;53.172;8.256;2022-12-29T00:51:43;6.27;;;5.40;;
16063;SDS011;8136;53.172;8.256;2022-12-29T00:54:11;6.20;;;5.60;;
16063;SDS011;8136;53.172;8.256;2022-12-29T00:56:38;6.30;;;5.70;;
16063;SDS011;8136;53.172;8.256;2022-12-29T00:59:05;8.10;;;6.47;;
16063;SDS011;8136;53.172;8.256;2022-12-29T01:01:35;6.20;;;5.60;;
16063;SDS011;8136;53.172;8.256;2022-12-29T01:04:03;6.77;;;6.17;;
16063;SDS011;8136;53.172;8.256;2022-12-29T01:06:30;6.57;;;6.00;;
16063;SDS011;8136;53.172;8.256;2022-12-29T01:08:57;5.70;;;5.20;;
16063;SDS011;8136;53.172;8.256;2022-12-29T01:11:42;6.77;;;5.87;;
16063;SDS011;8136;53.172;8.256;2022-12-29T01:14:08;6.17;;;5.67;;
16063;SDS011;8136;53.172;8.256;2022-12-29T01:16:36;7.40;;;5.70;;
16063;SDS011;8136;53.172;8.256;2022-12-29T01:19:03;6.10;;;5.60;;
16063;SDS011;8136;53.172;8.256;2022-12-29T01:21:30;5.83;;;5.33;;
16063;SDS011;8136;53.172;8.256;2022-12-29T01:23:58;6.13;;;5.47;;
16063;SDS011;8136;53.172;8.256;2022-12-29T01:26:25;5.73;;;5.13;;
16063;SDS011;8136;53.172;8.256;2022-12-29T01:28:51;6.00;;;5.50;;
16063;SDS011;8136;53.172;8.256;2022-12-29T01:31:18;5.27;;;4.50;;
16063;SDS011;8136;53.172;8.256;2022-12-29T01:33:46;5.30;;;4.63;;
16063;SDS011;8136;53.172;8.256;2022-12-29T01:36:14;5.77;;;5.10;;
16063;SDS011;8136;53.172;8.256;2022-12-29T01:38:42;4.77;;;4.30;;
16063;SDS011;8136;53.172;8.256;2022-12-29T01:41:10;5.07;;;4.63;;
16063;SDS011;8136;53.172;8.256;2022-12-29T01:43:39;4.90;;;4.50;;
16063;SDS011;8136;53.172;8.256;2022-12-29T01:46:07;11.23;;;4.90;;
16063;SDS011;8136;53.172;8.256;2022-12-29T01:48:53;5.77;;;4.37;;
16063;SDS011;8136;53.172;8.256;2022-12-29T01:51:23;4.43;;;4.03;;
16063;SDS011;8136;53.172;8.256;2022-12-29T01:53:52;4.63;;;4.23;;
16063;SDS011;8136;53.172;8.256;2022-12-29T01:56:22;4.27;;;3.87;;
16063;SDS011;8136;53.172;8.256;2022-12-29T01:58:51;4.27;;;3.87;;
16063;SDS011;8136;53.172;8.256;2022-12-29T02:01:25;3.83;;;3.13;;
16063;SDS011;8136;53.172;8.256;2022-12-29T02:03:53;3.30;;;3.03;;
16063;SDS011;8136;53.172;8.256;2022-12-29T02:06:21;3.83;;;3.53;;
16063;SDS011;8136;53.172;8.256;2022-12-29T02:08:51;4.43;;;3.70;;
16063;SDS011;8136;53.172;8.256;2022-12-29T02:11:20;3.60;;;3.30;;
16063;SDS011;8136;53.172;8.256;2022-12-29T02:13:49;4.47;;;3.13;;
16063;SDS011;8136;53.172;8.256;2022-12-29T02:16:23;3.77;;;3.37;;
16063;SDS011;8136;53.172;8.256;2022-12-29T02:19:08;3.37;;;3.10;;
16063;SDS011;8136;53.172;8.256;2022-12-29T02:22:09;2.73;;;2.53;;
16063;SDS011;8136;53.172;8.256;2022-12-29T02:27:52;3.60;;;3.07;;
16063;SDS011;8136;53.172;8.256;2022-12-29T02:30:31;3.80;;;2.70;;
16063;SDS011;8136;53.172;8.256;2022-12-29T02:33:05;3.80;;;2.93;;
16063;SDS011;8136;53.172;8.256;2022-12-29T02:35:41;2.93;;;2.73;;
16063;SDS011;8136;53.172;8.256;2022-12-29T02:38:18;3.70;;;3.40;;
16063;SDS011;8136;53.172;8.256;2022-12-29T02:40:51;3.70;;;3.40;;
16063;SDS011;8136;53.172;8.256;2022-12-29T02:43:22;4.40;;;2.77;;
16063;SDS011;8136;53.172;8.256;2022-12-29T02:45:55;3.53;;;3.23;;
16063;SDS011;8136;53.172;8.256;2022-12-29T02:48:27;3.50;;;3.20;;
16063;SDS011;8136;53.172;8.256;2022-12-29T02:50:58;3.87;;;3.20;;
16063;SDS011;8136;53.172;8.256;2022-12-29T02:53:27;3.40;;;3.10;;
16063;SDS011;8136;53.172;8.256;2022-12-29T02:56:14;4.50;;;2.80;;
16063;SDS011;8136;53.172;8.256;2022-12-29T02:58:41;3.37;;;2.77;;
16063;SDS011;8136;53.172;8.256;2022-12-29T03:01:21;3.90;;;3.10;;
16063;SDS011;8136;53.172;8.256;2022-12-29T03:03:59;3.43;;;2.60;;
16063;SDS011;8136;53.172;8.256;2022-12-29T03:06:38;4.03;;;3.10;;
16063;SDS011;8136;53.172;8.256;2022-12-29T03:09:18;3.13;;;2.77;;
16063;SDS011;8136;53.172;8.256;2022-12-29T03:11:53;3.27;;;2.97;;
16063;SDS011;8136;53.172;8.256;2022-12-29T03:14:36;3.50;;;3.20;;
16063;SDS011;8136;53.172;8.256;2022-12-29T03:17:30;2.90;;;2.70;;
16063;SDS011;8136;53.172;8.256;2022-12-29T03:20:04;3.00;;;2.60;;
16063;SDS011;8136;53.172;8.256;2022-12-29T03:22:34;3.20;;;2.90;;
16063;SDS011;8136;53.172;8.256;2022-12-29T03:25:07;3.07;;;2.87;;
16063;SDS011;8136;53.172;8.256;2022-12-29T03:27:39;3.00;;;2.63;;
16063;SDS011;8136;53.172;8.256;2022-12-29T03:30:10;3.93;;;3.00;;
16063;SDS011;8136;53.172;8.256;2022-12-29T03:32:42;3.40;;;3.10;;
16063;SDS011;8136;53.172;8.256;2022-12-29T03:35:11;3.07;;;2.77;;
16063;SDS011;8136;53.172;8.256;2022-12-29T03:37:41;3.13;;;2.93;;
16063;SDS011;8136;53.172;8.256;2022-12-29T03:40:11;3.47;;;3.17;;
16063;SDS011;8136;53.172;8.256;2022-12-29T03:42:38;3.50;;;3.20;;
16063;SDS011;8136;53.172;8.256;2022-12-29T03:45:07;3.30;;;3.00;;
16063;SDS011;8136;53.172;8.256;2022-12-29T03:47:35;4.50;;;3.10;;
16063;SDS011;8136;53.172;8.256;2022-12-29T03:50:03;3.50;;;2.73;;
16063;SDS011;8136;53.172;8.256;2022-12-29T03:52:31;3.00;;;2.70;;
16063;SDS011;8136;53.172;8.256;2022-12-29T03:54:57;3.70;;;2.47;;
16063;SDS011;8136;53.172;8.256;2022-12-29T03:57:24;3.10;;;2.80;;
16063;SDS011;8136;53.172;8.256;2022-12-29T03:59:51;2.87;;;2.50;;
16063;SDS011;8136;53.172;8.256;2022-12-29T04:02:17;2.73;;;2.53;;
16063;SDS011;8136;53.172;8.256;2022-12-29T04:04:44;2.83;;;2.50;;
16063;SDS011;8136;53.172;8.256;2022-12-29T04:07:12;2.60;;;2.40;;
16063;SDS011;8136;53.172;8.256;2022-12-29T04:09:39;2.70;;;2.20;;
16063;SDS011;8136;53.172;8.256;2022-12-29T04:12:06;2.67;;;2.23;;
16063;SDS011;8136;53.172;8.256;2022-12-29T04:14:33;2.73;;;2.33;;
16063;SDS011;8136;53.172;8.256;2022-12-29T04:16:59;2.50;;;2.30;;
16063;SDS011;8136;53.172;8.256;2022-12-29T04:19:26;2.20;;;2.00;;
16063;SDS011;8136;53.172;8.256;2022-12-29T04:21:53;2.30;;;2.10;;
16063;SDS011;8136;53.172;8.256;2022-12-29T04:24:21;2.93;;;2.10;;
16063;SDS011;8136;53.172;8.256;2022-12-29T04:26:48;2.30;;;2.10;;
16063;SDS011;8136;53.172;8.256;2022-12-29T04:29:14;1.83;;;1.73;;
16063;SDS011;8136;53.172;8.256;2022-12-29T04:31:41;2.33;;;2.13;;
16063;SDS011;8136;53.172;8.256;2022-12-29T04:34:08;2.40;;;1.87;;
16063;SDS011;8136;53.172;8.256;2022-12-29T04:36:35;2.37;;;1.50;;
16063;SDS011;8136;53.172;8.256;2022-12-29T04:39:01;1.40;;;1.30;;
16063;SDS011;8136;53.172;8.256;2022-12-29T04:41:31;1.40;;;1.30;;
16063;SDS011;8136;53.172;8.256;2022-12-29T04:43:58;2.10;;;1.33;;
16063;SDS011;8136;53.172;8.256;2022-12-29T04:46:25;3.93;;;1.47;;
16063;SDS011;8136;53.172;8.256;2022-12-29T04:48:51;2.17;;;1.30;;
16063;SDS011;8136;53.172;8.256;2022-12-29T04:51:18;1.87;;;1.00;;
16063;SDS011;8136;53.172;8.256;2022-12-29T04:53:45;1.63;;;1.20;;
16063;SDS011;8136;53.172;8.256;2022-12-29T04:56:12;1.33;;;1.10;;
16063;SDS011;8136;53.172;8.256;2022-12-29T04:58:40;1.73;;;1.00;;
16063;SDS011;8136;53.172;8.256;2022-12-29T05:01:06;1.30;;;1.10;;
16063;SDS011;8136;53.172;8.256;2022-12-29T05:03:33;2.47;;;1.20;;
16063;SDS011;8136;53.172;8.256;2022-12-29T05:06:00;0.80;;;0.80;;
16063;SDS011;8136;53.172;8.256;2022-12-29T05:08:27;2.97;;;1.00;;
16063;SDS011;8136;53.172;8.256;2022-12-29T05:10:53;0.70;;;0.70;;
16063;SDS011;8136;53.172;8.256;2022-12-29T05:13:20;1.80;;;1.00;;
16063;SDS011;8136;53.172;8.256;2022-12-29T05:15:49;1.37;;;0.80;;
16063;SDS011;8136;53.172;8.256;2022-12-29T05:18:16;0.80;;;0.70;;
16063;SDS011;8136;53.172;8.256;2022-12-29T05:20:43;1.53;;;0.80;;
16063;SDS011;8136;53.172;8.256;2022-12-29T05:23:10;1.87;;;0.87;;
16063;SDS011;8136;53.172;8.256;2022-12-29T05:25:37;1.30;;;0.77;;
16063;SDS011;8136;53.172;8.256;2022-12-29T05:28:05;2.83;;;0.73;;
16063;SDS011;8136;53.172;8.256;2022-12-29T05:30:31;0.70;;;0.70;;
16063;SDS011;8136;53.172;8.256;2022-12-29T05:32:59;1.70;;;0.70;;
16063;SDS011;8136;53.172;8.256;2022-12-29T05:35:26;1.23;;;0.70;;
16063;SDS011;8136;53.172;8.256;2022-12-29T05:37:53;2.33;;;0.67;;
16063;SDS011;8136;53.172;8.256;2022-12-29T05:40:20;2.77;;;0.80;;
16063;SDS011;8136;53.172;8.256;2022-12-29T05:42:47;1.00;;;0.60;;
16063;SDS011;8136;53.172;8.256;2022-12-29T05:45:13;1.07;;;0.60;;
16063;SDS011;8136;53.172;8.256;2022-12-29T05:47:40;0.67;;;0.60;;
16063;SDS011;8136;53.172;8.256;2022-12-29T05:50:08;0.70;;;0.60;;
16063;SDS011;8136;53.172;8.256;2022-12-29T05:52:35;1.17;;;0.90;;
16063;SDS011;8136;53.172;8.256;2022-12-29T05:55:02;1.17;;;0.70;;
16063;SDS011;8136;53.172;8.256;2022-12-29T05:57:29;0.83;;;0.60;;
16063;SDS011;8136;53.172;8.256;2022-12-29T05:59:56;1.10;;;0.70;;
16063;SDS011;8136;53.172;8.256;2022-12-29T06:02:23;0.50;;;0.50;;
16063;SDS011;8136;53.172;8.256;2022-12-29T06:04:50;1.23;;;0.70;;
16063;SDS011;8136;53.172;8.256;2022-12-29T06:07:18;2.47;;;0.83;;
16063;SDS011;8136;53.172;8.256;2022-12-29T06:09:44;1.00;;;0.60;;
16063;SDS011;8136;53.172;8.256;2022-12-29T06:12:11;1.27;;;0.80;;
16063;SDS011;8136;53.172;8.256;2022-12-29T06:14:38;1.37;;;0.93;;
16063;SDS011;8136;53.172;8.256;2022-12-29T06:17:05;1.47;;;0.80;;
16063;SDS011;8136;53.172;8.256;2022-12-29T06:19:32;0.80;;;0.60;;
16063;SDS011;8136;53.172;8.256;2022-12-29T06:21:59;3.30;;;0.93;;
16063;SDS011;8136;53.172;8.256;2022-12-29T06:24:27;0.90;;;0.77;;
16063;SDS011;8136;53.172;8.256;2022-12-29T06:26:53;2.07;;;1.03;;
16063;SDS011;8136;53.172;8.256;2022-12-29T06:29:20;1.70;;;0.90;;
16063;SDS011;8136;53.172;8.256;2022-12-29T06:31:47;3.40;;;0.90;;
16063;SDS011;8136;53.172;8.256;2022-12-29T06:34:14;1.70;;;0.90;;
16063;SDS011;8136;53.172;8.256;2022-12-29T06:36:41;2.50;;;1.10;;
16063;SDS011;8136;53.172;8.256;2022-12-29T06:39:08;1.77;;;0.70;;
16063;SDS011;8136;53.172;8.256;2022-12-29T06:41:37;0.97;;;0.80;;
16063;SDS011;8136;53.172;8.256;2022-12-29T06:44:04;0.97;;;0.87;;
16063;SDS011;8136;53.172;8.256;2022-12-29T06:46:30;1.57;;;0.90;;
16063;SDS011;8136;53.172;8.256;2022-12-29T06:48:57;2.13;;;1.17;;
16063;SDS011;8136;53.172;8.256;2022-12-29T06:51:24;2.53;;;0.90;;
16063;SDS011;8136;53.172;8.256;2022-12-29T06:53:51;1.90;;;1.00;;
16063;SDS011;8136;53.172;8.256;2022-12-29T06:56:17;1.90;;;1.07;;
16063;SDS011;8136;53.172;8.256;2022-12-29T06:58:45;1.70;;;1.30;;
16063;SDS011;8136;53.172;8.256;2022-12-29T07:01:12;3.30;;;1.53;;
16063;SDS011;8136;53.172;8.256;2022-12-29T07:03:40;4.07;;;1.63;;
16063;SDS011;8136;53.172;8.256;2022-12-29T07:06:07;2.17;;;1.20;;
16063;SDS011;8136;53.172;8.256;2022-12-29T07:08:34;2.00;;;1.00;;
16063;SDS011;8136;53.172;8.256;2022-12-29T07:11:01;2.17;;;1.10;;
16063;SDS011;8136;53.172;8.256;2022-12-29T07:13:28;2.83;;;1.13;;
16063;SDS011;8136;53.172;8.256;2022-12-29T07:15:56;2.73;;;1.30;;
16063;SDS011;8136;53.172;8.256;2022-12-29T07:18:22;2.83;;;1.50;;
16063;SDS011;8136;53.172;8.256;2022-12-29T07:20:49;4.80;;;1.63;;
16063;SDS011;8136;53.172;8.256;2022-12-29T07:23:16;2.53;;;1.10;;
16063;SDS011;8136;53.172;8.256;2022-12-29T07:25:42;1.13;;;0.80;;
16063;SDS011;8136;53.172;8.256;2022-12-29T07:28:09;2.80;;;1.20;;
16063;SDS011;8136;53.172;8.256;2022-12-29T07:30:36;3.57;;;1.00;;
16063;SDS011;8136;53.172;8.256;2022-12-29T07:33:05;5.07;;;1.10;;
16063;SDS011;8136;53.172;8.256;2022-12-29T07:35:32;1.20;;;0.80;;
16063;SDS011;8136;53.172;8.256;2022-12-29T07:37:59;2.33;;;1.07;;
16063;SDS011;8136;53.172;8.256;2022-12-29T07:40:26;4.20;;;1.13;;
16063;SDS011;8136;53.172;8.256;2022-12-29T07:42:53;2.07;;;0.87;;
16063;SDS011;8136;53.172;8.256;2022-12-29T07:45:19;2.23;;;0.93;;
16063;SDS011;8136;53.172;8.256;2022-12-29T07:47:47;1.87;;;1.10;;
16063;SDS011;8136;53.172;8.256;2022-12-29T07:50:15;5.00;;;1.03;;
16063;SDS011;8136;53.172;8.256;2022-12-29T07:52:42;2.37;;;1.10;;
16063;SDS011;8136;53.172;8.256;2022-12-29T07:55:09;3.30;;;1.23;;
16063;SDS011;8136;53.172;8.256;2022-12-29T07:57:36;4.73;;;1.13;;
16063;SDS011;8136;53.172;8.256;2022-12-29T08:00:03;3.13;;;1.03;;
16063;SDS011;8136;53.172;8.256;2022-12-29T08:02:31;2.80;;;0.90;;
16063;SDS011;8136;53.172;8.256;2022-12-29T08:04:57;3.13;;;0.90;;
16063;SDS011;8136;53.172;8.256;2022-12-29T08:07:25;4.07;;;1.10;;
16063;SDS011;8136;53.172;8.256;2022-12-29T08:09:52;3.80;;;1.00;;
16063;SDS011;8136;53.172;8.256;2022-12-29T08:12:19;3.60;;;1.13;;
16063;SDS011;8136;53.172;8.256;2022-12-29T08:14:46;3.67;;;0.90;;
16063;SDS011;8136;53.172;8.256;2022-12-29T08:17:12;2.70;;;1.00;;
16063;SDS011;8136;53.172;8.256;2022-12-29T08:19:39;2.83;;;1.10;;
16063;SDS011;8136;53.172;8.256;2022-12-29T08:22:07;2.70;;;0.97;;
16063;SDS011;8136;53.172;8.256;2022-12-29T08:24:35;4.20;;;0.90;;
16063;SDS011;8136;53.172;8.256;2022-12-29T08:27:02;3.60;;;0.93;;
16063;SDS011;8136;53.172;8.256;2022-12-29T08:29:29;2.93;;;1.17;;
16063;SDS011;8136;53.172;8.256;2022-12-29T08:31:56;5.57;;;1.30;;
16063;SDS011;8136;53.172;8.256;2022-12-29T08:34:22;3.13;;;1.00;;
16063;SDS011;8136;53.172;8.256;2022-12-29T08:36:49;2.70;;;1.10;;
16063;SDS011;8136;53.172;8.256;2022-12-29T08:39:16;6.07;;;1.10;;
16063;SDS011;8136;53.172;8.256;2022-12-29T08:41:44;7.23;;;1.20;;
16063;SDS011;8136;53.172;8.256;2022-12-29T08:44:11;8.03;;;1.27;;
16063;SDS011;8136;53.172;8.256;2022-12-29T08:46:38;4.47;;;1.23;;
16063;SDS011;8136;53.172;8.256;2022-12-29T08:49:04;2.57;;;1.23;;
16063;SDS011;8136;53.172;8.256;2022-12-29T08:51:31;3.13;;;0.90;;
16063;SDS011;8136;53.172;8.256;2022-12-29T08:53:58;2.57;;;1.03;;
16063;SDS011;8136;53.172;8.256;2022-12-29T08:56:25;5.40;;;1.50;;
16063;SDS011;8136;53.172;8.256;2022-12-29T08:58:53;2.17;;;1.10;;
16063;SDS011;8136;53.172;8.256;2022-12-29T09:01:20;4.77;;;1.30;;
16063;SDS011;8136;53.172;8.256;2022-12-29T09:03:47;5.23;;;1.53;;
16063;SDS011;8136;53.172;8.256;2022-12-29T09:06:15;5.20;;;1.33;;
16063;SDS011;8136;53.172;8.256;2022-12-29T09:08:42;3.13;;;1.57;;
16063;SDS011;8136;53.172;8.256;2022-12-29T09:11:10;4.17;;;1.40;;
16063;SDS011;8136;53.172;8.256;2022-12-29T09:13:39;4.03;;;1.13;;
16063;SDS011;8136;53.172;8.256;2022-12-29T09:16:07;2.43;;;1.40;;
16063;SDS011;8136;53.172;8.256;2022-12-29T09:18:35;3.10;;;1.07;;
16063;SDS011;8136;53.172;8.256;2022-12-29T09:21:03;7.57;;;1.10;;
16063;SDS011;8136;53.172;8.256;2022-12-29T09:23:31;7.60;;;1.23;;
16063;SDS011;8136;53.172;8.256;2022-12-29T09:25:58;5.60;;;1.30;;
16063;SDS011;8136;53.172;8.256;2022-12-29T09:28:26;2.43;;;1.00;;
16063;SDS011;8136;53.172;8.256;2022-12-29T09:30:54;3.73;;;1.33;;
16063;SDS011;8136;53.172;8.256;2022-12-29T09:33:23;5.87;;;1.53;;
16063;SDS011;8136;53.172;8.256;2022-12-29T09:35:51;3.93;;;1.10;;
16063;SDS011;8136;53.172;8.256;2022-12-29T09:38:20;4.93;;;0.90;;
16063;SDS011;8136;53.172;8.256;2022-12-29T09:40:49;6.47;;;1.53;;
16063;SDS011;8136;53.172;8.256;2022-12-29T09:43:29;6.13;;;1.40;;
16063;SDS011;8136;53.172;8.256;2022-12-29T09:46:23;6.93;;;1.43;;
16063;SDS011;8136;53.172;8.256;2022-12-29T09:48:57;7.20;;;1.23;;
16063;SDS011;8136;53.172;8.256;2022-12-29T09:51:31;4.07;;;1.33;;
16063;SDS011;8136;53.172;8.256;2022-12-29T09:54:02;6.30;;;1.47;;
16063;SDS011;8136;53.172;8.256;2022-12-29T09:56:40;3.63;;;1.20;;
16063;SDS011;8136;53.172;8.256;2022-12-29T09:59:10;3.97;;;1.03;;
16063;SDS011;8136;53.172;8.256;2022-12-29T10:01:43;5.17;;;1.50;;
16063;SDS011;8136;53.172;8.256;2022-12-29T10:04:14;4.23;;;1.30;;
16063;SDS011;8136;53.172;8.256;2022-12-29T10:06:42;3.57;;;1.00;;
16063;SDS011;8136;53.172;8.256;2022-12-29T10:09:17;5.10;;;1.40;;
16063;SDS011;8136;53.172;8.256;2022-12-29T10:11:58;4.67;;;0.90;;
16063;SDS011;8136;53.172;8.256;2022-12-29T10:14:41;4.73;;;1.00;;
16063;SDS011;8136;53.172;8.256;2022-12-29T10:17:22;2.90;;;1.00;;
16063;SDS011;8136;53.172;8.256;2022-12-29T10:20:00;2.83;;;0.90;;
16063;SDS011;8136;53.172;8.256;2022-12-29T10:22:40;4.80;;;1.40;;
16063;SDS011;8136;53.172;8.256;2022-12-29T10:25:17;3.10;;;1.23;;
16063;SDS011;8136;53.172;8.256;2022-12-29T10:27:47;6.03;;;1.47;;
16063;SDS011;8136;53.172;8.256;2022-12-29T10:30:15;5.37;;;1.30;;
16063;SDS011;8136;53.172;8.256;2022-12-29T10:32:44;2.87;;;1.00;;
16063;SDS011;8136;53.172;8.256;2022-12-29T10:35:16;2.67;;;1.10;;
16063;SDS011;8136;53.172;8.256;2022-12-29T10:37:47;1.90;;;0.80;;
16063;SDS011;8136;53.172;8.256;2022-12-29T10:40:19;3.03;;;0.80;;
16063;SDS011;8136;53.172;8.256;2022-12-29T10:42:52;6.57;;;1.43;;
16063;SDS011;8136;53.172;8.256;2022-12-29T10:45:19;2.17;;;1.07;;
16063;SDS011;8136;53.172;8.256;2022-12-29T10:47:51;4.37;;;1.30;;
16063;SDS011;8136;53.172;8.256;2022-12-29T10:50:22;2.37;;;1.20;;
16063;SDS011;8136;53.172;8.256;2022-12-29T10:52:50;2.23;;;0.90;;
16063;SDS011;8136;53.172;8.256;2022-12-29T10:55:19;2.73;;;1.03;;
16063;SDS011;8136;53.172;8.256;2022-12-29T10:57:52;5.00;;;1.23;;
16063;SDS011;8136;53.172;8.256;2022-12-29T11:00:22;4.07;;;1.43;;
16063;SDS011;8136;53.172;8.256;2022-12-29T11:05:52;5.77;;;1.30;;
16063;SDS011;8136;53.172;8.256;2022-12-29T11:08:23;5.30;;;1.20;;
16063;SDS011;8136;53.172;8.256;2022-12-29T11:10:57;5.77;;;1.20;;
16063;SDS011;8136;53.172;8.256;2022-12-29T11:13:27;5.97;;;1.27;;
16063;SDS011;8136;53.172;8.256;2022-12-29T11:15:55;4.90;;;0.90;;
16063;SDS011;8136;53.172;8.256;2022-12-29T11:18:23;5.00;;;1.57;;
16063;SDS011;8136;53.172;8.256;2022-12-29T11:20:53;5.17;;;1.13;;
16063;SDS011;8136;53.172;8.256;2022-12-29T11:23:25;3.97;;;1.13;;
16063;SDS011;8136;53.172;8.256;2022-12-29T11:26:12;4.70;;;1.37;;
16063;SDS011;8136;53.172;8.256;2022-12-29T11:28:42;4.07;;;1.20;;
16063;SDS011;8136;53.172;8.256;2022-12-29T11:31:10;3.37;;;1.30;;
16063;SDS011;8136;53.172;8.256;2022-12-29T11:33:41;4.23;;;1.30;;
16063;SDS011;8136;53.172;8.256;2022-12-29T11:36:10;7.30;;;1.90;;
16063;SDS011;8136;53.172;8.256;2022-12-29T11:38:41;7.77;;;1.47;;
16063;SDS011;8136;53.172;8.256;2022-12-29T11:41:13;8.37;;;1.53;;
16063;SDS011;8136;53.172;8.256;2022-12-29T11:43:45;6.47;;;1.03;;
16063;SDS011;8136;53.172;8.256;2022-12-29T11:46:13;5.03;;;1.17;;
16063;SDS011;8136;53.172;8.256;2022-12-29T11:48:42;3.47;;;1.00;;
16063;SDS011;8136;53.172;8.256;2022-12-29T11:51:11;4.67;;;1.13;;
16063;SDS011;8136;53.172;8.256;2022-12-29T11:53:39;2.83;;;1.07;;
16063;SDS011;8136;53.172;8.256;2022-12-29T11:56:10;5.30;;;1.00;;
16063;SDS011;8136;53.172;8.256;2022-12-29T11:58:40;3.00;;;1.30;;
16063;SDS011;8136;53.172;8.256;2022-12-29T12:01:09;5.23;;;1.73;;
16063;SDS011;8136;53.172;8.256;2022-12-29T12:03:40;4.77;;;1.23;;
16063;SDS011;8136;53.172;8.256;2022-12-29T12:06:14;5.30;;;1.20;;
16063;SDS011;8136;53.172;8.256;2022-12-29T12:08:46;3.47;;;1.27;;
16063;SDS011;8136;53.172;8.256;2022-12-29T12:11:20;2.57;;;1.27;;
16063;SDS011;8136;53.172;8.256;2022-12-29T12:13:51;4.83;;;1.00;;
16063;SDS011;8136;53.172;8.256;2022-12-29T12:16:24;4.97;;;1.27;;
16063;SDS011;8136;53.172;8.256;2022-12-29T12:19:00;5.10;;;1.20;;
16063;SDS011;8136;53.172;8.256;2022-12-29T12:21:32;4.33;;;1.30;;
16063;SDS011;8136;53.172;8.256;2022-12-29T12:24:11;6.10;;;1.67;;
16063;SDS011;8136;53.172;8.256;2022-12-29T12:26:54;5.00;;;1.37;;
16063;SDS011;8136;53.172;8.256;2022-12-29T12:29:25;3.73;;;1.20;;
16063;SDS011;8136;53.172;8.256;2022-12-29T12:32:01;4.00;;;0.90;;
16063;SDS011;8136;53.172;8.256;2022-12-29T12:34:36;5.07;;;2.03;;
16063;SDS011;8136;53.172;8.256;2022-12-29T12:37:14;4.27;;;1.17;;
16063;SDS011;8136;53.172;8.256;2022-12-29T12:39:57;4.90;;;1.30;;
16063;SDS011;8136;53.172;8.256;2022-12-29T12:42:51;5.00;;;0.83;;
16063;SDS011;8136;53.172;8.256;2022-12-29T12:45:34;3.57;;;1.07;;
16063;SDS011;8136;53.172;8.256;2022-12-29T12:48:12;3.40;;;1.10;;
16063;SDS011;8136;53.172;8.256;2022-12-29T12:50:55;3.70;;;1.00;;
16063;SDS011;8136;53.172;8.256;2022-12-29T12:53:49;2.90;;;1.17;;
16063;SDS011;8136;53.172;8.256;2022-12-29T12:59:24;5.00;;;1.20;;
16063;SDS011;8136;53.172;8.256;2022-12-29T13:02:00;2.77;;;1.20;;
16063;SDS011;8136;53.172;8.256;2022-12-29T13:04:43;2.93;;;0.93;;
16063;SDS011;8136;53.172;8.256;2022-12-29T13:07:20;3.63;;;1.10;;
16063;SDS011;8136;53.172;8.256;2022-12-29T13:10:02;2.30;;;0.80;;
16063;SDS011;8136;53.172;8.256;2022-12-29T13:12:44;2.70;;;1.20;;
16063;SDS011;8136;53.172;8.256;2022-12-29T13:15:18;5.97;;;1.13;;
16063;SDS011;8136;53.172;8.256;2022-12-29T13:17:57;2.50;;;1.00;;
16063;SDS011;8136;53.172;8.256;2022-12-29T13:20:31;4.83;;;1.60;;
16063;SDS011;8136;53.172;8.256;2022-12-29T13:23:06;3.53;;;1.20;;
16063;SDS011;8136;53.172;8.256;2022-12-29T13:25:41;5.87;;;1.20;;
16063;SDS011;8136;53.172;8.256;2022-12-29T13:28:15;4.63;;;1.73;;
16063;SDS011;8136;53.172;8.256;2022-12-29T13:30:51;4.73;;;1.47;;
16063;SDS011;8136;53.172;8.256;2022-12-29T13:33:24;5.27;;;1.50;;
16063;SDS011;8136;53.172;8.256;2022-12-29T13:36:00;6.83;;;1.40;;
16063;SDS011;8136;53.172;8.256;2022-12-29T13:38:32;10.43;;;1.70;;
16063;SDS011;8136;53.172;8.256;2022-12-29T13:41:04;9.37;;;1.70;;
16063;SDS011;8136;53.172;8.256;2022-12-29T13:43:35;4.53;;;1.33;;
16063;SDS011;8136;53.172;8.256;2022-12-29T13:46:06;5.67;;;1.40;;
16063;SDS011;8136;53.172;8.256;2022-12-29T13:48:37;2.07;;;1.30;;
16063;SDS011;8136;53.172;8.256;2022-12-29T13:51:09;6.50;;;1.50;;
16063;SDS011;8136;53.172;8.256;2022-12-29T13:53:40;6.47;;;1.67;;
16063;SDS011;8136;53.172;8.256;2022-12-29T13:56:19;6.67;;;1.70;;
16063;SDS011;8136;53.172;8.256;2022-12-29T13:58:52;3.23;;;1.40;;
16063;SDS011;8136;53.172;8.256;2022-12-29T14:01:21;4.80;;;1.40;;
16063;SDS011;8136;53.172;8.256;2022-12-29T14:03:54;5.53;;;1.63;;
16063;SDS011;8136;53.172;8.256;2022-12-29T14:06:23;6.47;;;1.97;;
16063;SDS011;8136;53.172;8.256;2022-12-29T14:08:52;5.47;;;1.27;;
16063;SDS011;8136;53.172;8.256;2022-12-29T14:11:22;4.03;;;2.07;;
16063;SDS011;8136;53.172;8.256;2022-12-29T14:13:54;4.07;;;1.43;;
16063;SDS011;8136;53.172;8.256;2022-12-29T14:16:29;6.87;;;1.97;;
16063;SDS011;8136;53.172;8.256;2022-12-29T14:19:03;7.70;;;2.20;;
16063;SDS011;8136;53.172;8.256;2022-12-29T14:21:35;6.43;;;1.60;;
16063;SDS011;8136;53.172;8.256;2022-12-29T14:30:15;5.67;;;1.70;;
16063;SDS011;8136;53.172;8.256;2022-12-29T14:33:15;8.70;;;1.60;;
16063;SDS011;8136;53.172;8.256;2022-12-29T14:35:43;5.53;;;2.00;;
16063;SDS011;8136;53.172;8.256;2022-12-29T14:38:18;6.50;;;1.53;;
16063;SDS011;8136;53.172;8.256;2022-12-29T14:41:15;5.87;;;1.20;;
16063;SDS011;8136;53.172;8.256;2022-12-29T14:43:54;6.00;;;1.60;;
16063;SDS011;8136;53.172;8.256;2022-12-29T14:49:22;5.00;;;1.60;;
16063;SDS011;8136;53.172;8.256;2022-12-29T14:51:51;6.67;;;1.40;;
16063;SDS011;8136;53.172;8.256;2022-12-29T14:57:32;5.53;;;1.67;;
16063;SDS011;8136;53.172;8.256;2022-12-29T15:00:04;8.70;;;1.80;;
16063;SDS011;8136;53.172;8.256;2022-12-29T15:02:36;6.80;;;1.80;;
16063;SDS011;8136;53.172;8.256;2022-12-29T15:05:10;6.67;;;2.03;;
16063;SDS011;8136;53.172;8.256;2022-12-29T15:07:50;4.40;;;1.50;;
16063;SDS011;8136;53.172;8.256;2022-12-29T15:10:18;4.60;;;1.53;;
16063;SDS011;8136;53.172;8.256;2022-12-29T15:12:49;6.30;;;1.93;;
16063;SDS011;8136;53.172;8.256;2022-12-29T15:15:20;6.10;;;1.60;;
16063;SDS011;8136;53.172;8.256;2022-12-29T15:17:50;6.13;;;1.90;;
16063;SDS011;8136;53.172;8.256;2022-12-29T15:20:21;3.93;;;1.50;;
16063;SDS011;8136;53.172;8.256;2022-12-29T15:22:52;9.03;;;1.70;;
16063;SDS011;8136;53.172;8.256;2022-12-29T15:25:20;5.30;;;1.53;;
16063;SDS011;8136;53.172;8.256;2022-12-29T15:27:48;5.80;;;1.90;;
16063;SDS011;8136;53.172;8.256;2022-12-29T15:30:17;7.83;;;1.97;;
16063;SDS011;8136;53.172;8.256;2022-12-29T15:32:45;5.63;;;1.80;;
16063;SDS011;8136;53.172;8.256;2022-12-29T15:35:25;8.03;;;2.10;;
16063;SDS011;8136;53.172;8.256;2022-12-29T15:37:57;8.00;;;2.10;;
16063;SDS011;8136;53.172;8.256;2022-12-29T15:40:25;9.47;;;2.10;;
16063;SDS011;8136;53.172;8.256;2022-12-29T15:42:59;7.80;;;2.23;;
16063;SDS011;8136;53.172;8.256;2022-12-29T15:45:45;10.13;;;2.07;;